sensor_id;sensor_type;location;lat;lon;timestamp;pressure;altitude;pressure_sealevel;temperature
58929;BMP180;44713;53.378;10.022;2022-09-12T00:00:46;101545.00;;;13.20
58929;BMP180;44713;53.378;10.022;2022-09-12T00:03:11;101553.00;;;13.20
58929;BMP180;44713;53.378;10.022;2022-09-12T00:05:45;101552.00;;;13.10
58929;BMP180;44713;53.378;10.022;2022-09-12T00:08:12;101550.00;;;13.10
58929;BMP180;44713;53.378;10.022;2022-09-12T00:10:42;101548.00;;;13.00
58929;BMP180;44713;53.378;10.022;2022-09-12T00:13:09;101552.00;;;12.90
58929;BMP180;44713;53.378;10.022;2022-09-12T00:15:45;101541.00;;;12.90
58929;BMP180;44713;53.378;10.022;2022-09-12T00:18:15;101544.00;;;12.90
58929;BMP180;44713;53.378;10.022;2022-09-12T00:20:45;101543.00;;;12.80
58929;BMP180;44713;53.378;10.022;2022-09-12T00:23:11;101540.00;;;12.80
58929;BMP180;44713;53.378;10.022;2022-09-12T00:25:41;101541.00;;;12.80
58929;BMP180;44713;53.378;10.022;2022-09-12T00:28:07;101539.00;;;12.80
58929;BMP180;44713;53.378;10.022;2022-09-12T00:30:32;101538.00;;;12.80
58929;BMP180;44713;53.378;10.022;2022-09-12T00:32:58;101520.00;;;12.80
58929;BMP180;44713;53.378;10.022;2022-09-12T00:35:23;101519.00;;;12.80
58929;BMP180;44713;53.378;10.022;2022-09-12T00:37:48;101526.00;;;12.70
58929;BMP180;44713;53.378;10.022;2022-09-12T00:40:14;101521.00;;;12.60
58929;BMP180;44713;53.378;10.022;2022-09-12T00:42:39;101517.00;;;12.50
58929;BMP180;44713;53.378;10.022;2022-09-12T00:45:05;101517.00;;;12.50
58929;BMP180;44713;53.378;10.022;2022-09-12T00:47:31;101523.00;;;12.40
58929;BMP180;44713;53.378;10.022;2022-09-12T00:50:07;101522.00;;;12.50
58929;BMP180;44713;53.378;10.022;2022-09-12T00:52:41;101529.00;;;12.50
58929;BMP180;44713;53.378;10.022;2022-09-12T00:55:14;101531.00;;;12.40
58929;BMP180;44713;53.378;10.022;2022-09-12T00:57:50;101524.00;;;12.30
58929;BMP180;44713;53.378;10.022;2022-09-12T01:00:20;101518.00;;;12.30
58929;BMP180;44713;53.378;10.022;2022-09-12T01:02:52;101511.00;;;12.30
58929;BMP180;44713;53.378;10.022;2022-09-12T01:05:20;101507.00;;;12.30
58929;BMP180;44713;53.378;10.022;2022-09-12T01:07:47;101511.00;;;12.30
58929;BMP180;44713;53.378;10.022;2022-09-12T01:10:14;101510.00;;;12.20
58929;BMP180;44713;53.378;10.022;2022-09-12T01:12:41;101506.00;;;12.20
58929;BMP180;44713;53.378;10.022;2022-09-12T01:15:09;101500.00;;;12.20
58929;BMP180;44713;53.378;10.022;2022-09-12T01:18:04;101505.00;;;12.30
58929;BMP180;44713;53.378;10.022;2022-09-12T01:20:58;101504.00;;;12.20
58929;BMP180;44713;53.378;10.022;2022-09-12T01:32:14;101495.00;;;12.10
58929;BMP180;44713;53.378;10.022;2022-09-12T01:37:30;101494.00;;;12.00
58929;BMP180;44713;53.378;10.022;2022-09-12T01:42:53;101494.00;;;11.90
58929;BMP180;44713;53.378;10.022;2022-09-12T01:45:31;101489.00;;;11.90
58929;BMP180;44713;53.378;10.022;2022-09-12T01:48:14;101494.00;;;11.90
58929;BMP180;44713;53.378;10.022;2022-09-12T01:50:49;101492.00;;;11.90
58929;BMP180;44713;53.378;10.022;2022-09-12T01:53:26;101474.00;;;11.90
58929;BMP180;44713;53.378;10.022;2022-09-12T01:55:59;101476.00;;;11.90
58929;BMP180;44713;53.378;10.022;2022-09-12T01:58:32;101482.00;;;11.80
58929;BMP180;44713;53.378;10.022;2022-09-12T02:01:11;101486.00;;;11.90
58929;BMP180;44713;53.378;10.022;2022-09-12T02:03:47;101480.00;;;11.80
58929;BMP180;44713;53.378;10.022;2022-09-12T02:06:20;101480.00;;;11.70
58929;BMP180;44713;53.378;10.022;2022-09-12T02:08:53;101482.00;;;11.70
58929;BMP180;44713;53.378;10.022;2022-09-12T02:11:20;101479.00;;;11.70
58929;BMP180;44713;53.378;10.022;2022-09-12T02:13:56;101475.00;;;11.70
58929;BMP180;44713;53.378;10.022;2022-09-12T02:16:37;101471.00;;;11.70
58929;BMP180;44713;53.378;10.022;2022-09-12T02:19:13;101471.00;;;11.70
58929;BMP180;44713;53.378;10.022;2022-09-12T02:21:45;101471.00;;;11.60
58929;BMP180;44713;53.378;10.022;2022-09-12T02:24:13;101470.00;;;11.60
58929;BMP180;44713;53.378;10.022;2022-09-12T02:27:04;101474.00;;;11.50
58929;BMP180;44713;53.378;10.022;2022-09-12T02:29:31;101461.00;;;11.50
58929;BMP180;44713;53.378;10.022;2022-09-12T02:31:58;101464.00;;;11.50
58929;BMP180;44713;53.378;10.022;2022-09-12T02:39:47;101454.00;;;11.50
58929;BMP180;44713;53.378;10.022;2022-09-12T02:42:13;101447.00;;;11.50
58929;BMP180;44713;53.378;10.022;2022-09-12T02:44:38;101443.00;;;11.50
58929;BMP180;44713;53.378;10.022;2022-09-12T02:47:14;101454.00;;;11.50
58929;BMP180;44713;53.378;10.022;2022-09-12T02:49:42;101450.00;;;11.40
58929;BMP180;44713;53.378;10.022;2022-09-12T02:52:07;101440.00;;;11.40
58929;BMP180;44713;53.378;10.022;2022-09-12T02:54:33;101444.00;;;11.40
58929;BMP180;44713;53.378;10.022;2022-09-12T02:56:58;101448.00;;;11.30
58929;BMP180;44713;53.378;10.022;2022-09-12T02:59:24;101454.00;;;11.20
58929;BMP180;44713;53.378;10.022;2022-09-12T03:02:04;101462.00;;;11.20
58929;BMP180;44713;53.378;10.022;2022-09-12T03:07:51;101449.00;;;11.10
58929;BMP180;44713;53.378;10.022;2022-09-12T03:10:36;101447.00;;;11.20
58929;BMP180;44713;53.378;10.022;2022-09-12T03:13:20;101461.00;;;11.10
58929;BMP180;44713;53.378;10.022;2022-09-12T03:21:11;101465.00;;;11.00
58929;BMP180;44713;53.378;10.022;2022-09-12T03:23:45;101466.00;;;11.00
58929;BMP180;44713;53.378;10.022;2022-09-12T03:26:20;101466.00;;;11.00
58929;BMP180;44713;53.378;10.022;2022-09-12T03:28:48;101467.00;;;11.00
58929;BMP180;44713;53.378;10.022;2022-09-12T03:31:15;101463.00;;;11.00
58929;BMP180;44713;53.378;10.022;2022-09-12T03:33:41;101461.00;;;11.10
58929;BMP180;44713;53.378;10.022;2022-09-12T03:36:22;101452.00;;;11.20
58929;BMP180;44713;53.378;10.022;2022-09-12T03:38:48;101459.00;;;11.20
58929;BMP180;44713;53.378;10.022;2022-09-12T03:41:14;101466.00;;;11.20
58929;BMP180;44713;53.378;10.022;2022-09-12T03:43:39;101466.00;;;11.10
58929;BMP180;44713;53.378;10.022;2022-09-12T03:46:05;101463.00;;;11.00
58929;BMP180;44713;53.378;10.022;2022-09-12T03:48:30;101458.00;;;11.00
58929;BMP180;44713;53.378;10.022;2022-09-12T03:51:02;101457.00;;;11.10
58929;BMP180;44713;53.378;10.022;2022-09-12T03:53:28;101455.00;;;11.10
58929;BMP180;44713;53.378;10.022;2022-09-12T03:55:55;101460.00;;;11.00
58929;BMP180;44713;53.378;10.022;2022-09-12T03:58:20;101461.00;;;10.90
58929;BMP180;44713;53.378;10.022;2022-09-12T04:00:46;101458.00;;;10.80
58929;BMP180;44713;53.378;10.022;2022-09-12T04:03:11;101454.00;;;10.80
58929;BMP180;44713;53.378;10.022;2022-09-12T04:05:36;101448.00;;;10.80
58929;BMP180;44713;53.378;10.022;2022-09-12T04:08:02;101452.00;;;10.80
58929;BMP180;44713;53.378;10.022;2022-09-12T04:10:27;101453.00;;;10.70
58929;BMP180;44713;53.378;10.022;2022-09-12T04:12:52;101452.00;;;10.70
58929;BMP180;44713;53.378;10.022;2022-09-12T04:15:18;101452.00;;;10.80
58929;BMP180;44713;53.378;10.022;2022-09-12T04:17:43;101455.00;;;10.70
58929;BMP180;44713;53.378;10.022;2022-09-12T04:20:09;101452.00;;;10.70
58929;BMP180;44713;53.378;10.022;2022-09-12T04:22:34;101445.00;;;10.80
58929;BMP180;44713;53.378;10.022;2022-09-12T04:24:59;101445.00;;;10.80
58929;BMP180;44713;53.378;10.022;2022-09-12T04:27:25;101445.00;;;10.80
58929;BMP180;44713;53.378;10.022;2022-09-12T04:29:50;101445.00;;;10.70
58929;BMP180;44713;53.378;10.022;2022-09-12T04:32:16;101440.00;;;10.80
58929;BMP180;44713;53.378;10.022;2022-09-12T04:34:42;101437.00;;;10.90
58929;BMP180;44713;53.378;10.022;2022-09-12T04:37:07;101449.00;;;10.80
58929;BMP180;44713;53.378;10.022;2022-09-12T04:39:33;101436.00;;;10.70
58929;BMP180;44713;53.378;10.022;2022-09-12T04:41:58;101437.00;;;10.70
58929;BMP180;44713;53.378;10.022;2022-09-12T04:44:23;101437.00;;;10.60
58929;BMP180;44713;53.378;10.022;2022-09-12T04:46:49;101441.00;;;10.60
58929;BMP180;44713;53.378;10.022;2022-09-12T04:49:15;101450.00;;;10.50
58929;BMP180;44713;53.378;10.022;2022-09-12T04:51:41;101455.00;;;10.50
58929;BMP180;44713;53.378;10.022;2022-09-12T04:54:10;101450.00;;;10.60
58929;BMP180;44713;53.378;10.022;2022-09-12T04:56:38;101444.00;;;10.60
58929;BMP180;44713;53.378;10.022;2022-09-12T04:59:04;101446.00;;;10.70
58929;BMP180;44713;53.378;10.022;2022-09-12T05:01:31;101444.00;;;10.60
58929;BMP180;44713;53.378;10.022;2022-09-12T05:03:57;101442.00;;;10.50
58929;BMP180;44713;53.378;10.022;2022-09-12T05:06:26;101440.00;;;10.50
58929;BMP180;44713;53.378;10.022;2022-09-12T05:08:53;101449.00;;;10.50
58929;BMP180;44713;53.378;10.022;2022-09-12T05:11:21;101449.00;;;10.50
58929;BMP180;44713;53.378;10.022;2022-09-12T05:13:47;101460.00;;;10.50
58929;BMP180;44713;53.378;10.022;2022-09-12T05:16:15;101454.00;;;10.40
58929;BMP180;44713;53.378;10.022;2022-09-12T05:18:41;101449.00;;;10.40
58929;BMP180;44713;53.378;10.022;2022-09-12T05:21:10;101456.00;;;10.50
58929;BMP180;44713;53.378;10.022;2022-09-12T05:23:36;101451.00;;;10.50
58929;BMP180;44713;53.378;10.022;2022-09-12T05:26:02;101451.00;;;10.60
58929;BMP180;44713;53.378;10.022;2022-09-12T05:28:30;101445.00;;;10.60
58929;BMP180;44713;53.378;10.022;2022-09-12T05:31:10;101441.00;;;10.60
58929;BMP180;44713;53.378;10.022;2022-09-12T05:33:37;101446.00;;;10.70
58929;BMP180;44713;53.378;10.022;2022-09-12T05:36:05;101455.00;;;10.70
58929;BMP180;44713;53.378;10.022;2022-09-12T05:38:33;101446.00;;;10.60
58929;BMP180;44713;53.378;10.022;2022-09-12T05:41:07;101453.00;;;10.60
58929;BMP180;44713;53.378;10.022;2022-09-12T05:43:34;101454.00;;;10.60
58929;BMP180;44713;53.378;10.022;2022-09-12T05:46:05;101455.00;;;10.60
58929;BMP180;44713;53.378;10.022;2022-09-12T05:48:33;101455.00;;;10.60
58929;BMP180;44713;53.378;10.022;2022-09-12T05:51:08;101456.00;;;10.60
58929;BMP180;44713;53.378;10.022;2022-09-12T05:53:39;101455.00;;;10.60
58929;BMP180;44713;53.378;10.022;2022-09-12T05:56:13;101456.00;;;10.60
58929;BMP180;44713;53.378;10.022;2022-09-12T05:58:41;101454.00;;;10.70
58929;BMP180;44713;53.378;10.022;2022-09-12T06:01:17;101458.00;;;10.70
58929;BMP180;44713;53.378;10.022;2022-09-12T06:03:54;101462.00;;;10.70
58929;BMP180;44713;53.378;10.022;2022-09-12T06:06:22;101463.00;;;10.80
58929;BMP180;44713;53.378;10.022;2022-09-12T06:08:50;101455.00;;;10.90
58929;BMP180;44713;53.378;10.022;2022-09-12T06:11:19;101457.00;;;11.00
58929;BMP180;44713;53.378;10.022;2022-09-12T06:13:45;101466.00;;;11.00
58929;BMP180;44713;53.378;10.022;2022-09-12T06:16:13;101468.00;;;11.00
58929;BMP180;44713;53.378;10.022;2022-09-12T06:18:39;101463.00;;;11.00
58929;BMP180;44713;53.378;10.022;2022-09-12T06:21:06;101464.00;;;11.10
58929;BMP180;44713;53.378;10.022;2022-09-12T06:23:32;101468.00;;;11.10
58929;BMP180;44713;53.378;10.022;2022-09-12T06:25:57;101467.00;;;11.20
58929;BMP180;44713;53.378;10.022;2022-09-12T06:28:23;101470.00;;;11.20
58929;BMP180;44713;53.378;10.022;2022-09-12T06:30:49;101466.00;;;11.30
58929;BMP180;44713;53.378;10.022;2022-09-12T06:33:14;101467.00;;;11.40
58929;BMP180;44713;53.378;10.022;2022-09-12T06:35:40;101461.00;;;11.40
58929;BMP180;44713;53.378;10.022;2022-09-12T06:38:06;101457.00;;;11.50
58929;BMP180;44713;53.378;10.022;2022-09-12T06:40:32;101463.00;;;11.60
58929;BMP180;44713;53.378;10.022;2022-09-12T06:42:57;101453.00;;;11.60
58929;BMP180;44713;53.378;10.022;2022-09-12T06:45:32;101461.00;;;11.70
58929;BMP180;44713;53.378;10.022;2022-09-12T06:47:57;101462.00;;;11.80
58929;BMP180;44713;53.378;10.022;2022-09-12T06:50:22;101450.00;;;11.80
58929;BMP180;44713;53.378;10.022;2022-09-12T06:52:49;101452.00;;;12.00
58929;BMP180;44713;53.378;10.022;2022-09-12T06:55:15;101450.00;;;12.00
58929;BMP180;44713;53.378;10.022;2022-09-12T06:57:41;101452.00;;;12.10
58929;BMP180;44713;53.378;10.022;2022-09-12T07:00:06;101446.00;;;12.20
58929;BMP180;44713;53.378;10.022;2022-09-12T07:02:32;101446.00;;;12.40
58929;BMP180;44713;53.378;10.022;2022-09-12T07:04:57;101447.00;;;12.50
58929;BMP180;44713;53.378;10.022;2022-09-12T07:07:23;101457.00;;;12.60
58929;BMP180;44713;53.378;10.022;2022-09-12T07:09:48;101450.00;;;12.80
58929;BMP180;44713;53.378;10.022;2022-09-12T07:12:14;101456.00;;;12.90
58929;BMP180;44713;53.378;10.022;2022-09-12T07:14:40;101456.00;;;13.00
58929;BMP180;44713;53.378;10.022;2022-09-12T07:17:05;101461.00;;;13.10
58929;BMP180;44713;53.378;10.022;2022-09-12T07:19:31;101464.00;;;13.20
58929;BMP180;44713;53.378;10.022;2022-09-12T07:21:57;101453.00;;;13.40
58929;BMP180;44713;53.378;10.022;2022-09-12T07:24:22;101449.00;;;13.50
58929;BMP180;44713;53.378;10.022;2022-09-12T07:26:47;101448.00;;;13.60
58929;BMP180;44713;53.378;10.022;2022-09-12T07:29:15;101441.00;;;13.70
58929;BMP180;44713;53.378;10.022;2022-09-12T07:31:40;101442.00;;;13.80
58929;BMP180;44713;53.378;10.022;2022-09-12T07:34:06;101438.00;;;14.00
58929;BMP180;44713;53.378;10.022;2022-09-12T07:36:31;101441.00;;;14.10
58929;BMP180;44713;53.378;10.022;2022-09-12T07:38:57;101440.00;;;14.20
58929;BMP180;44713;53.378;10.022;2022-09-12T07:41:25;101433.00;;;14.40
58929;BMP180;44713;53.378;10.022;2022-09-12T07:43:58;101434.00;;;14.60
58929;BMP180;44713;53.378;10.022;2022-09-12T07:46:25;101428.00;;;14.70
58929;BMP180;44713;53.378;10.022;2022-09-12T07:48:52;101433.00;;;14.90
58929;BMP180;44713;53.378;10.022;2022-09-12T07:51:18;101429.00;;;15.00
58929;BMP180;44713;53.378;10.022;2022-09-12T07:53:44;101425.00;;;15.20
58929;BMP180;44713;53.378;10.022;2022-09-12T07:56:12;101428.00;;;15.30
58929;BMP180;44713;53.378;10.022;2022-09-12T07:58:38;101427.00;;;15.40
58929;BMP180;44713;53.378;10.022;2022-09-12T08:01:15;101426.00;;;15.60
58929;BMP180;44713;53.378;10.022;2022-09-12T08:03:42;101421.00;;;15.80
58929;BMP180;44713;53.378;10.022;2022-09-12T08:08:35;101423.00;;;16.10
58929;BMP180;44713;53.378;10.022;2022-09-12T08:11:02;101429.00;;;16.20
58929;BMP180;44713;53.378;10.022;2022-09-12T08:13:30;101424.00;;;16.30
58929;BMP180;44713;53.378;10.022;2022-09-12T08:15:57;101419.00;;;16.60
58929;BMP180;44713;53.378;10.022;2022-09-12T08:18:27;101422.00;;;16.70
58929;BMP180;44713;53.378;10.022;2022-09-12T08:21:01;101430.00;;;16.90
58929;BMP180;44713;53.378;10.022;2022-09-12T08:23:27;101433.00;;;17.00
58929;BMP180;44713;53.378;10.022;2022-09-12T08:25:58;101434.00;;;17.10
58929;BMP180;44713;53.378;10.022;2022-09-12T08:28:24;101435.00;;;17.30
58929;BMP180;44713;53.378;10.022;2022-09-12T08:30:50;101425.00;;;17.40
58929;BMP180;44713;53.378;10.022;2022-09-12T08:33:15;101423.00;;;17.50
58929;BMP180;44713;53.378;10.022;2022-09-12T08:35:41;101411.00;;;17.60
58929;BMP180;44713;53.378;10.022;2022-09-12T08:38:06;101418.00;;;17.70
58929;BMP180;44713;53.378;10.022;2022-09-12T08:40:32;101421.00;;;17.70
58929;BMP180;44713;53.378;10.022;2022-09-12T08:43:32;101420.00;;;17.90
58929;BMP180;44713;53.378;10.022;2022-09-12T08:46:11;101417.00;;;18.10
58929;BMP180;44713;53.378;10.022;2022-09-12T08:48:39;101416.00;;;18.30
58929;BMP180;44713;53.378;10.022;2022-09-12T08:51:09;101415.00;;;18.40
58929;BMP180;44713;53.378;10.022;2022-09-12T08:53:36;101411.00;;;18.60
58929;BMP180;44713;53.378;10.022;2022-09-12T08:56:04;101418.00;;;18.80
58929;BMP180;44713;53.378;10.022;2022-09-12T08:58:35;101412.00;;;18.90
58929;BMP180;44713;53.378;10.022;2022-09-12T09:04:36;101401.00;;;19.10
58929;BMP180;44713;53.378;10.022;2022-09-12T09:17:31;101395.00;;;19.70
58929;BMP180;44713;53.378;10.022;2022-09-12T09:22:52;101385.00;;;19.90
58929;BMP180;44713;53.378;10.022;2022-09-12T09:25:35;101385.00;;;19.90
58929;BMP180;44713;53.378;10.022;2022-09-12T09:28:15;101375.00;;;20.20
58929;BMP180;44713;53.378;10.022;2022-09-12T09:30:42;101373.00;;;20.40
58929;BMP180;44713;53.378;10.022;2022-09-12T09:33:17;101373.00;;;20.40
58929;BMP180;44713;53.378;10.022;2022-09-12T09:35:46;101367.00;;;20.60
58929;BMP180;44713;53.378;10.022;2022-09-12T09:38:23;101369.00;;;20.80
58929;BMP180;44713;53.378;10.022;2022-09-12T09:43:43;101370.00;;;20.80
58929;BMP180;44713;53.378;10.022;2022-09-12T09:46:08;101374.00;;;20.90
58929;BMP180;44713;53.378;10.022;2022-09-12T09:48:37;101366.00;;;21.00
58929;BMP180;44713;53.378;10.022;2022-09-12T09:51:06;101366.00;;;21.00
58929;BMP180;44713;53.378;10.022;2022-09-12T09:53:53;101373.00;;;21.10
58929;BMP180;44713;53.378;10.022;2022-09-12T09:56:31;101363.00;;;21.10
58929;BMP180;44713;53.378;10.022;2022-09-12T09:59:10;101361.00;;;21.10
58929;BMP180;44713;53.378;10.022;2022-09-12T10:01:36;101359.00;;;21.30
58929;BMP180;44713;53.378;10.022;2022-09-12T10:04:04;101360.00;;;21.20
58929;BMP180;44713;53.378;10.022;2022-09-12T10:06:32;101361.00;;;21.30
58929;BMP180;44713;53.378;10.022;2022-09-12T10:09:19;101364.00;;;21.40
58929;BMP180;44713;53.378;10.022;2022-09-12T10:11:46;101365.00;;;21.30
58929;BMP180;44713;53.378;10.022;2022-09-12T10:14:27;101368.00;;;21.50
58929;BMP180;44713;53.378;10.022;2022-09-12T10:16:52;101369.00;;;21.60
58929;BMP180;44713;53.378;10.022;2022-09-12T10:19:25;101376.00;;;21.70
58929;BMP180;44713;53.378;10.022;2022-09-12T10:21:57;101364.00;;;21.60
58929;BMP180;44713;53.378;10.022;2022-09-12T10:24:40;101365.00;;;21.70
58929;BMP180;44713;53.378;10.022;2022-09-12T10:30:04;101370.00;;;21.90
58929;BMP180;44713;53.378;10.022;2022-09-12T10:32:42;101365.00;;;22.10
58929;BMP180;44713;53.378;10.022;2022-09-12T10:35:21;101362.00;;;22.20
58929;BMP180;44713;53.378;10.022;2022-09-12T10:37:59;101368.00;;;22.20
58929;BMP180;44713;53.378;10.022;2022-09-12T10:40:34;101364.00;;;22.20
58929;BMP180;44713;53.378;10.022;2022-09-12T10:43:01;101362.00;;;22.30
58929;BMP180;44713;53.378;10.022;2022-09-12T10:45:30;101363.00;;;22.40
58929;BMP180;44713;53.378;10.022;2022-09-12T10:48:01;101356.00;;;22.30
58929;BMP180;44713;53.378;10.022;2022-09-12T10:50:47;101348.00;;;22.40
58929;BMP180;44713;53.378;10.022;2022-09-12T10:53:17;101352.00;;;22.40
58929;BMP180;44713;53.378;10.022;2022-09-12T10:56:04;101348.00;;;22.70
58929;BMP180;44713;53.378;10.022;2022-09-12T10:58:36;101342.00;;;22.60
58929;BMP180;44713;53.378;10.022;2022-09-12T11:06:32;101345.00;;;22.80
58929;BMP180;44713;53.378;10.022;2022-09-12T11:09:18;101340.00;;;23.00
58929;BMP180;44713;53.378;10.022;2022-09-12T11:12:02;101343.00;;;23.10
58929;BMP180;44713;53.378;10.022;2022-09-12T11:14:32;101342.00;;;23.20
58929;BMP180;44713;53.378;10.022;2022-09-12T11:17:11;101346.00;;;23.30
58929;BMP180;44713;53.378;10.022;2022-09-12T11:20:27;101337.00;;;23.20
58929;BMP180;44713;53.378;10.022;2022-09-12T11:25:50;101337.00;;;23.50
58929;BMP180;44713;53.378;10.022;2022-09-12T11:28:57;101335.00;;;23.30
58929;BMP180;44713;53.378;10.022;2022-09-12T11:31:51;101327.00;;;23.30
58929;BMP180;44713;53.378;10.022;2022-09-12T11:37:28;101320.00;;;23.20
58929;BMP180;44713;53.378;10.022;2022-09-12T11:40:06;101324.00;;;23.30
58929;BMP180;44713;53.378;10.022;2022-09-12T11:42:42;101331.00;;;23.40
58929;BMP180;44713;53.378;10.022;2022-09-12T11:45:15;101326.00;;;23.40
58929;BMP180;44713;53.378;10.022;2022-09-12T11:47:44;101327.00;;;23.30
58929;BMP180;44713;53.378;10.022;2022-09-12T11:50:29;101324.00;;;23.20
58929;BMP180;44713;53.378;10.022;2022-09-12T11:53:00;101325.00;;;23.20
58929;BMP180;44713;53.378;10.022;2022-09-12T11:55:33;101316.00;;;23.30
58929;BMP180;44713;53.378;10.022;2022-09-12T11:58:03;101317.00;;;23.40
58929;BMP180;44713;53.378;10.022;2022-09-12T12:00:36;101314.00;;;23.60
58929;BMP180;44713;53.378;10.022;2022-09-12T12:05:52;101326.00;;;24.00
58929;BMP180;44713;53.378;10.022;2022-09-12T12:08:21;101328.00;;;23.80
58929;BMP180;44713;53.378;10.022;2022-09-12T12:10:51;101318.00;;;23.90
58929;BMP180;44713;53.378;10.022;2022-09-12T12:15:53;101311.00;;;24.10
58929;BMP180;44713;53.378;10.022;2022-09-12T12:18:23;101318.00;;;24.00
58929;BMP180;44713;53.378;10.022;2022-09-12T12:20:50;101306.00;;;24.10
58929;BMP180;44713;53.378;10.022;2022-09-12T12:23:22;101306.00;;;24.10
58929;BMP180;44713;53.378;10.022;2022-09-12T12:25:54;101307.00;;;24.00
58929;BMP180;44713;53.378;10.022;2022-09-12T12:31:05;101309.00;;;23.60
58929;BMP180;44713;53.378;10.022;2022-09-12T12:38:48;101301.00;;;23.20
58929;BMP180;44713;53.378;10.022;2022-09-12T12:43:51;101302.00;;;23.70
58929;BMP180;44713;53.378;10.022;2022-09-12T12:46:19;101301.00;;;23.70
58929;BMP180;44713;53.378;10.022;2022-09-12T12:51:23;101302.00;;;23.40
58929;BMP180;44713;53.378;10.022;2022-09-12T12:53:51;101302.00;;;23.80
58929;BMP180;44713;53.378;10.022;2022-09-12T12:56:26;101294.00;;;23.60
58929;BMP180;44713;53.378;10.022;2022-09-12T12:58:58;101301.00;;;23.70
58929;BMP180;44713;53.378;10.022;2022-09-12T13:01:24;101293.00;;;23.80
58929;BMP180;44713;53.378;10.022;2022-09-12T13:04:04;101296.00;;;23.90
58929;BMP180;44713;53.378;10.022;2022-09-12T13:06:40;101280.00;;;23.90
58929;BMP180;44713;53.378;10.022;2022-09-12T13:11:42;101283.00;;;24.00
58929;BMP180;44713;53.378;10.022;2022-09-12T13:14:33;101276.00;;;24.00
58929;BMP180;44713;53.378;10.022;2022-09-12T13:17:03;101269.00;;;23.90
58929;BMP180;44713;53.378;10.022;2022-09-12T13:19:32;101266.00;;;24.00
58929;BMP180;44713;53.378;10.022;2022-09-12T13:22:07;101267.00;;;24.00
58929;BMP180;44713;53.378;10.022;2022-09-12T13:24:34;101263.00;;;23.90
58929;BMP180;44713;53.378;10.022;2022-09-12T13:27:21;101253.00;;;24.00
58929;BMP180;44713;53.378;10.022;2022-09-12T13:29:48;101253.00;;;24.00
58929;BMP180;44713;53.378;10.022;2022-09-12T13:32:15;101246.00;;;24.00
58929;BMP180;44713;53.378;10.022;2022-09-12T13:35:25;101237.00;;;24.20
58929;BMP180;44713;53.378;10.022;2022-09-12T13:38:20;101235.00;;;24.60
58929;BMP180;44713;53.378;10.022;2022-09-12T13:43:45;101226.00;;;25.00
58929;BMP180;44713;53.378;10.022;2022-09-12T13:46:19;101220.00;;;24.70
58929;BMP180;44713;53.378;10.022;2022-09-12T13:48:46;101219.00;;;24.80
58929;BMP180;44713;53.378;10.022;2022-09-12T13:51:22;101219.00;;;24.90
58929;BMP180;44713;53.378;10.022;2022-09-12T13:53:49;101205.00;;;24.60
58929;BMP180;44713;53.378;10.022;2022-09-12T13:56:16;101205.00;;;24.50
58929;BMP180;44713;53.378;10.022;2022-09-12T13:58:59;101217.00;;;24.60
58929;BMP180;44713;53.378;10.022;2022-09-12T14:01:43;101204.00;;;24.50
58929;BMP180;44713;53.378;10.022;2022-09-12T14:04:20;101201.00;;;24.30
58929;BMP180;44713;53.378;10.022;2022-09-12T14:07:12;101195.00;;;24.20
58929;BMP180;44713;53.378;10.022;2022-09-12T14:09:44;101193.00;;;24.00
58929;BMP180;44713;53.378;10.022;2022-09-12T14:12:18;101196.00;;;24.20
58929;BMP180;44713;53.378;10.022;2022-09-12T14:14:50;101194.00;;;24.40
58929;BMP180;44713;53.378;10.022;2022-09-12T14:17:23;101195.00;;;24.50
58929;BMP180;44713;53.378;10.022;2022-09-12T14:19:54;101194.00;;;24.40
58929;BMP180;44713;53.378;10.022;2022-09-12T14:22:24;101191.00;;;24.20
58929;BMP180;44713;53.378;10.022;2022-09-12T14:24:55;101179.00;;;24.40
58929;BMP180;44713;53.378;10.022;2022-09-12T14:27:23;101189.00;;;24.50
58929;BMP180;44713;53.378;10.022;2022-09-12T14:30:00;101188.00;;;24.60
58929;BMP180;44713;53.378;10.022;2022-09-12T14:32:26;101183.00;;;24.70
58929;BMP180;44713;53.378;10.022;2022-09-12T14:37:36;101182.00;;;25.00
58929;BMP180;44713;53.378;10.022;2022-09-12T14:40:02;101184.00;;;24.70
58929;BMP180;44713;53.378;10.022;2022-09-12T14:42:30;101183.00;;;24.70
58929;BMP180;44713;53.378;10.022;2022-09-12T14:45:14;101177.00;;;24.80
58929;BMP180;44713;53.378;10.022;2022-09-12T14:47:42;101175.00;;;24.70
58929;BMP180;44713;53.378;10.022;2022-09-12T14:50:17;101180.00;;;24.60
58929;BMP180;44713;53.378;10.022;2022-09-12T14:52:43;101169.00;;;25.00
58929;BMP180;44713;53.378;10.022;2022-09-12T14:57:41;101160.00;;;25.20
58929;BMP180;44713;53.378;10.022;2022-09-12T15:00:16;101166.00;;;25.30
58929;BMP180;44713;53.378;10.022;2022-09-12T15:02:45;101163.00;;;25.20
58929;BMP180;44713;53.378;10.022;2022-09-12T15:07:41;101155.00;;;25.10
58929;BMP180;44713;53.378;10.022;2022-09-12T15:12:38;101153.00;;;24.90
58929;BMP180;44713;53.378;10.022;2022-09-12T15:15:15;101155.00;;;24.80
58929;BMP180;44713;53.378;10.022;2022-09-12T15:17:41;101154.00;;;24.70
58929;BMP180;44713;53.378;10.022;2022-09-12T15:20:07;101150.00;;;24.50
58929;BMP180;44713;53.378;10.022;2022-09-12T15:22:33;101146.00;;;24.30
58929;BMP180;44713;53.378;10.022;2022-09-12T15:24:59;101145.00;;;24.30
58929;BMP180;44713;53.378;10.022;2022-09-12T15:27:25;101141.00;;;24.40
58929;BMP180;44713;53.378;10.022;2022-09-12T15:29:51;101143.00;;;24.50
58929;BMP180;44713;53.378;10.022;2022-09-12T15:32:24;101147.00;;;24.60
58929;BMP180;44713;53.378;10.022;2022-09-12T15:34:50;101138.00;;;24.60
58929;BMP180;44713;53.378;10.022;2022-09-12T15:37:18;101138.00;;;24.60
58929;BMP180;44713;53.378;10.022;2022-09-12T15:39:44;101136.00;;;24.50
58929;BMP180;44713;53.378;10.022;2022-09-12T15:42:11;101131.00;;;24.60